Alma, Alabama
Current Conditions -  °F | °C
As of 12:53 AM on Wednesday 26 Nov 2014 (Local Time) from KGZH Reporting Station
Overcast Overcast  
Wind Chill:   Ceiling: 9000
Heat Index:   Visibility: 10mi
Dew Point: -1°   Wind: 7mph
Humidity: 50%   Direction: 320°NW
Pressure: 30.11"   Gusts: NA
Location:  31.46°N, 87.75°W
Report Text: KGZH 260653Z AUTO 32006KT 10SM FEW070 OVC090 09/M01 A3011 RMK AO2 RAB25E38 SLP195 P0000 T00941006
Loading
Personal Weather Stations






























Interactive Weather Map New forecast layout! Learn more

10-Day Weather Forecast

Advertisements
Track Severe Weather on mobile